sensor_id;sensor_type;location;lat;lon;timestamp;P1;durP1;ratioP1;P2;durP2;ratioP2
71606;SDS011;60641;53.556;9.914;2023-03-03T00:01:46;29.90;;;12.00;;
71606;SDS011;60641;53.556;9.914;2023-03-03T00:04:13;31.80;;;12.40;;
71606;SDS011;60641;53.556;9.914;2023-03-03T00:06:39;28.80;;;12.00;;
71606;SDS011;60641;53.556;9.914;2023-03-03T00:09:06;29.00;;;10.70;;
71606;SDS011;60641;53.556;9.914;2023-03-03T00:11:32;30.80;;;12.00;;
71606;SDS011;60641;53.556;9.914;2023-03-03T00:13:59;30.20;;;11.30;;
71606;SDS011;60641;53.556;9.914;2023-03-03T00:16:34;29.40;;;12.00;;
71606;SDS011;60641;53.556;9.914;2023-03-03T00:19:03;27.90;;;11.00;;
71606;SDS011;60641;53.556;9.914;2023-03-03T00:21:39;28.90;;;11.10;;
71606;SDS011;60641;53.556;9.914;2023-03-03T00:26:38;26.40;;;11.00;;
71606;SDS011;60641;53.556;9.914;2023-03-03T00:29:27;24.40;;;10.10;;
71606;SDS011;60641;53.556;9.914;2023-03-03T00:35:45;27.10;;;11.40;;
71606;SDS011;60641;53.556;9.914;2023-03-03T00:38:13;30.60;;;11.30;;
71606;SDS011;60641;53.556;9.914;2023-03-03T00:40:43;28.00;;;11.50;;
71606;SDS011;60641;53.556;9.914;2023-03-03T00:43:23;27.30;;;11.00;;
71606;SDS011;60641;53.556;9.914;2023-03-03T00:45:56;26.00;;;10.60;;
71606;SDS011;60641;53.556;9.914;2023-03-03T00:53:50;26.50;;;11.40;;
71606;SDS011;60641;53.556;9.914;2023-03-03T00:56:17;28.60;;;11.20;;
71606;SDS011;60641;53.556;9.914;2023-03-03T00:58:43;28.00;;;11.00;;
71606;SDS011;60641;53.556;9.914;2023-03-03T01:01:11;28.10;;;12.00;;
71606;SDS011;60641;53.556;9.914;2023-03-03T01:03:37;25.40;;;11.20;;
71606;SDS011;60641;53.556;9.914;2023-03-03T01:06:04;25.50;;;10.20;;
71606;SDS011;60641;53.556;9.914;2023-03-03T01:08:30;23.20;;;10.60;;
71606;SDS011;60641;53.556;9.914;2023-03-03T01:10:58;26.50;;;11.50;;
71606;SDS011;60641;53.556;9.914;2023-03-03T01:13:29;23.60;;;10.80;;
71606;SDS011;60641;53.556;9.914;2023-03-03T01:15:59;22.30;;;10.40;;
71606;SDS011;60641;53.556;9.914;2023-03-03T01:18:26;21.70;;;9.50;;
71606;SDS011;60641;53.556;9.914;2023-03-03T01:20:53;22.10;;;10.80;;
71606;SDS011;60641;53.556;9.914;2023-03-03T01:23:19;23.80;;;10.50;;
71606;SDS011;60641;53.556;9.914;2023-03-03T01:25:46;22.10;;;10.00;;
71606;SDS011;60641;53.556;9.914;2023-03-03T01:28:12;23.30;;;10.50;;
71606;SDS011;60641;53.556;9.914;2023-03-03T01:30:38;21.60;;;10.70;;
71606;SDS011;60641;53.556;9.914;2023-03-03T01:33:05;24.00;;;11.20;;
71606;SDS011;60641;53.556;9.914;2023-03-03T01:35:31;23.80;;;10.10;;
71606;SDS011;60641;53.556;9.914;2023-03-03T01:37:58;21.40;;;10.30;;
71606;SDS011;60641;53.556;9.914;2023-03-03T01:40:26;24.90;;;10.70;;
71606;SDS011;60641;53.556;9.914;2023-03-03T01:42:54;21.90;;;9.90;;
71606;SDS011;60641;53.556;9.914;2023-03-03T01:48:09;22.00;;;9.30;;
71606;SDS011;60641;53.556;9.914;2023-03-03T01:50:55;20.00;;;9.30;;
71606;SDS011;60641;53.556;9.914;2023-03-03T01:53:38;20.90;;;9.80;;
71606;SDS011;60641;53.556;9.914;2023-03-03T01:56:09;21.00;;;9.70;;
71606;SDS011;60641;53.556;9.914;2023-03-03T01:58:36;19.50;;;9.20;;
71606;SDS011;60641;53.556;9.914;2023-03-03T02:01:07;19.70;;;9.10;;
71606;SDS011;60641;53.556;9.914;2023-03-03T02:03:36;21.30;;;10.00;;
71606;SDS011;60641;53.556;9.914;2023-03-03T02:06:04;20.30;;;9.10;;
71606;SDS011;60641;53.556;9.914;2023-03-03T02:08:38;19.30;;;9.40;;
71606;SDS011;60641;53.556;9.914;2023-03-03T02:11:08;19.90;;;10.10;;
71606;SDS011;60641;53.556;9.914;2023-03-03T02:13:35;19.20;;;9.40;;
71606;SDS011;60641;53.556;9.914;2023-03-03T02:16:02;17.40;;;8.60;;
71606;SDS011;60641;53.556;9.914;2023-03-03T02:18:28;18.10;;;9.10;;
71606;SDS011;60641;53.556;9.914;2023-03-03T02:23:49;22.10;;;9.70;;
71606;SDS011;60641;53.556;9.914;2023-03-03T02:26:26;17.50;;;8.40;;
71606;SDS011;60641;53.556;9.914;2023-03-03T02:28:53;19.40;;;9.40;;
71606;SDS011;60641;53.556;9.914;2023-03-03T02:31:20;16.90;;;8.70;;
71606;SDS011;60641;53.556;9.914;2023-03-03T02:33:49;13.50;;;7.70;;
71606;SDS011;60641;53.556;9.914;2023-03-03T02:36:18;15.60;;;8.10;;
71606;SDS011;60641;53.556;9.914;2023-03-03T02:44:19;15.50;;;7.70;;
71606;SDS011;60641;53.556;9.914;2023-03-03T02:46:48;15.30;;;7.70;;
71606;SDS011;60641;53.556;9.914;2023-03-03T02:49:17;17.40;;;8.40;;
71606;SDS011;60641;53.556;9.914;2023-03-03T02:51:45;16.30;;;8.00;;
71606;SDS011;60641;53.556;9.914;2023-03-03T02:54:12;16.10;;;8.30;;
71606;SDS011;60641;53.556;9.914;2023-03-03T02:56:40;17.20;;;8.50;;
71606;SDS011;60641;53.556;9.914;2023-03-03T02:59:07;17.00;;;8.20;;
71606;SDS011;60641;53.556;9.914;2023-03-03T03:01:33;15.90;;;8.10;;
71606;SDS011;60641;53.556;9.914;2023-03-03T03:04:11;16.90;;;8.00;;
71606;SDS011;60641;53.556;9.914;2023-03-03T03:06:39;16.30;;;8.00;;
71606;SDS011;60641;53.556;9.914;2023-03-03T03:09:06;17.50;;;8.10;;
71606;SDS011;60641;53.556;9.914;2023-03-03T03:11:33;16.70;;;7.80;;
71606;SDS011;60641;53.556;9.914;2023-03-03T03:14:06;16.30;;;8.00;;
71606;SDS011;60641;53.556;9.914;2023-03-03T03:16:34;18.90;;;8.70;;
71606;SDS011;60641;53.556;9.914;2023-03-03T03:19:01;17.80;;;8.80;;
71606;SDS011;60641;53.556;9.914;2023-03-03T03:21:28;16.30;;;8.30;;
71606;SDS011;60641;53.556;9.914;2023-03-03T03:23:55;17.00;;;8.90;;
71606;SDS011;60641;53.556;9.914;2023-03-03T03:26:21;17.10;;;8.40;;
71606;SDS011;60641;53.556;9.914;2023-03-03T03:28:48;17.00;;;8.10;;
71606;SDS011;60641;53.556;9.914;2023-03-03T03:31:16;16.10;;;8.00;;
71606;SDS011;60641;53.556;9.914;2023-03-03T03:33:43;15.40;;;7.70;;
71606;SDS011;60641;53.556;9.914;2023-03-03T03:36:10;15.70;;;7.70;;
71606;SDS011;60641;53.556;9.914;2023-03-03T03:38:37;16.40;;;7.70;;
71606;SDS011;60641;53.556;9.914;2023-03-03T03:41:04;14.90;;;7.60;;
71606;SDS011;60641;53.556;9.914;2023-03-03T03:43:31;12.60;;;8.10;;
71606;SDS011;60641;53.556;9.914;2023-03-03T03:45:58;16.10;;;7.90;;
71606;SDS011;60641;53.556;9.914;2023-03-03T03:48:24;16.60;;;8.20;;
71606;SDS011;60641;53.556;9.914;2023-03-03T03:50:51;14.90;;;7.30;;
71606;SDS011;60641;53.556;9.914;2023-03-03T03:53:18;15.60;;;7.40;;
71606;SDS011;60641;53.556;9.914;2023-03-03T03:55:45;14.70;;;7.00;;
71606;SDS011;60641;53.556;9.914;2023-03-03T03:58:15;15.90;;;7.70;;
71606;SDS011;60641;53.556;9.914;2023-03-03T04:00:42;15.40;;;7.60;;
71606;SDS011;60641;53.556;9.914;2023-03-03T04:03:10;14.80;;;6.80;;
71606;SDS011;60641;53.556;9.914;2023-03-03T04:05:37;15.00;;;7.30;;
71606;SDS011;60641;53.556;9.914;2023-03-03T04:08:03;15.20;;;7.70;;
71606;SDS011;60641;53.556;9.914;2023-03-03T04:10:30;14.80;;;7.10;;
71606;SDS011;60641;53.556;9.914;2023-03-03T04:12:56;15.80;;;7.30;;
71606;SDS011;60641;53.556;9.914;2023-03-03T04:15:23;15.00;;;7.10;;
71606;SDS011;60641;53.556;9.914;2023-03-03T04:17:49;16.10;;;7.80;;
71606;SDS011;60641;53.556;9.914;2023-03-03T04:20:16;14.20;;;6.90;;
71606;SDS011;60641;53.556;9.914;2023-03-03T04:22:42;16.10;;;7.80;;
71606;SDS011;60641;53.556;9.914;2023-03-03T04:25:11;15.30;;;7.80;;
71606;SDS011;60641;53.556;9.914;2023-03-03T04:27:40;15.50;;;7.70;;
71606;SDS011;60641;53.556;9.914;2023-03-03T04:30:08;16.30;;;8.10;;
71606;SDS011;60641;53.556;9.914;2023-03-03T04:32:35;17.00;;;8.00;;
71606;SDS011;60641;53.556;9.914;2023-03-03T04:35:02;17.50;;;8.00;;
71606;SDS011;60641;53.556;9.914;2023-03-03T04:37:28;16.70;;;7.80;;
71606;SDS011;60641;53.556;9.914;2023-03-03T04:39:55;18.40;;;8.50;;
71606;SDS011;60641;53.556;9.914;2023-03-03T04:42:21;17.20;;;7.90;;
71606;SDS011;60641;53.556;9.914;2023-03-03T04:44:48;20.90;;;9.20;;
71606;SDS011;60641;53.556;9.914;2023-03-03T04:47:14;20.70;;;9.40;;
71606;SDS011;60641;53.556;9.914;2023-03-03T04:49:40;22.90;;;9.60;;
71606;SDS011;60641;53.556;9.914;2023-03-03T04:52:07;21.30;;;10.00;;
71606;SDS011;60641;53.556;9.914;2023-03-03T04:54:34;21.50;;;9.90;;
71606;SDS011;60641;53.556;9.914;2023-03-03T04:57:00;20.70;;;9.50;;
71606;SDS011;60641;53.556;9.914;2023-03-03T04:59:27;22.40;;;9.30;;
71606;SDS011;60641;53.556;9.914;2023-03-03T05:01:53;21.60;;;9.90;;
71606;SDS011;60641;53.556;9.914;2023-03-03T05:04:20;22.20;;;9.90;;
71606;SDS011;60641;53.556;9.914;2023-03-03T05:06:46;23.50;;;9.80;;
71606;SDS011;60641;53.556;9.914;2023-03-03T05:09:13;23.90;;;11.20;;
71606;SDS011;60641;53.556;9.914;2023-03-03T05:11:39;23.60;;;10.60;;
71606;SDS011;60641;53.556;9.914;2023-03-03T05:14:06;23.10;;;10.20;;
71606;SDS011;60641;53.556;9.914;2023-03-03T05:16:33;25.00;;;9.70;;
71606;SDS011;60641;53.556;9.914;2023-03-03T05:19:00;22.40;;;10.60;;
71606;SDS011;60641;53.556;9.914;2023-03-03T05:21:26;24.00;;;10.20;;
71606;SDS011;60641;53.556;9.914;2023-03-03T05:23:52;22.00;;;10.60;;
71606;SDS011;60641;53.556;9.914;2023-03-03T05:26:19;23.60;;;10.60;;
71606;SDS011;60641;53.556;9.914;2023-03-03T05:28:45;25.30;;;10.30;;
71606;SDS011;60641;53.556;9.914;2023-03-03T05:31:12;22.70;;;10.00;;
71606;SDS011;60641;53.556;9.914;2023-03-03T05:33:38;28.60;;;12.00;;
71606;SDS011;60641;53.556;9.914;2023-03-03T05:36:05;22.30;;;9.70;;
71606;SDS011;60641;53.556;9.914;2023-03-03T05:38:32;22.60;;;9.00;;
71606;SDS011;60641;53.556;9.914;2023-03-03T05:40:58;23.20;;;10.20;;
71606;SDS011;60641;53.556;9.914;2023-03-03T05:43:24;20.10;;;9.70;;
71606;SDS011;60641;53.556;9.914;2023-03-03T05:45:54;23.00;;;9.90;;
71606;SDS011;60641;53.556;9.914;2023-03-03T05:48:22;19.70;;;9.40;;
71606;SDS011;60641;53.556;9.914;2023-03-03T05:50:48;19.00;;;8.80;;
71606;SDS011;60641;53.556;9.914;2023-03-03T05:53:15;21.10;;;9.60;;
71606;SDS011;60641;53.556;9.914;2023-03-03T05:55:41;17.90;;;8.80;;
71606;SDS011;60641;53.556;9.914;2023-03-03T05:58:08;21.10;;;8.60;;
71606;SDS011;60641;53.556;9.914;2023-03-03T06:00:34;21.80;;;10.00;;
71606;SDS011;60641;53.556;9.914;2023-03-03T06:03:01;29.20;;;14.40;;
71606;SDS011;60641;53.556;9.914;2023-03-03T06:05:27;22.70;;;11.20;;
71606;SDS011;60641;53.556;9.914;2023-03-03T06:07:54;21.30;;;10.00;;
71606;SDS011;60641;53.556;9.914;2023-03-03T06:10:21;22.30;;;10.20;;
71606;SDS011;60641;53.556;9.914;2023-03-03T06:12:47;24.30;;;10.30;;
71606;SDS011;60641;53.556;9.914;2023-03-03T06:15:13;20.80;;;9.50;;
71606;SDS011;60641;53.556;9.914;2023-03-03T06:17:40;23.70;;;10.60;;
71606;SDS011;60641;53.556;9.914;2023-03-03T06:20:07;21.40;;;9.30;;
71606;SDS011;60641;53.556;9.914;2023-03-03T06:22:34;22.50;;;9.80;;
71606;SDS011;60641;53.556;9.914;2023-03-03T06:25:00;20.40;;;9.20;;
71606;SDS011;60641;53.556;9.914;2023-03-03T06:27:27;20.00;;;8.70;;
71606;SDS011;60641;53.556;9.914;2023-03-03T06:29:54;30.50;;;15.20;;
71606;SDS011;60641;53.556;9.914;2023-03-03T06:32:20;21.50;;;9.70;;
71606;SDS011;60641;53.556;9.914;2023-03-03T06:34:47;19.30;;;8.30;;
71606;SDS011;60641;53.556;9.914;2023-03-03T06:37:14;19.90;;;8.30;;
71606;SDS011;60641;53.556;9.914;2023-03-03T06:39:40;18.40;;;8.40;;
71606;SDS011;60641;53.556;9.914;2023-03-03T06:42:07;20.70;;;9.80;;
71606;SDS011;60641;53.556;9.914;2023-03-03T06:44:34;19.80;;;9.30;;
71606;SDS011;60641;53.556;9.914;2023-03-03T06:47:01;18.30;;;8.60;;
71606;SDS011;60641;53.556;9.914;2023-03-03T06:49:28;19.30;;;8.30;;
71606;SDS011;60641;53.556;9.914;2023-03-03T06:51:54;17.90;;;8.50;;
71606;SDS011;60641;53.556;9.914;2023-03-03T06:54:23;15.60;;;7.20;;
71606;SDS011;60641;53.556;9.914;2023-03-03T06:56:55;15.40;;;7.60;;
71606;SDS011;60641;53.556;9.914;2023-03-03T06:59:25;16.10;;;7.80;;
71606;SDS011;60641;53.556;9.914;2023-03-03T07:01:52;18.50;;;8.20;;
71606;SDS011;60641;53.556;9.914;2023-03-03T07:04:29;18.10;;;8.00;;
71606;SDS011;60641;53.556;9.914;2023-03-03T07:06:59;20.30;;;9.20;;
71606;SDS011;60641;53.556;9.914;2023-03-03T07:09:36;22.80;;;10.60;;
71606;SDS011;60641;53.556;9.914;2023-03-03T07:12:09;20.20;;;8.80;;
71606;SDS011;60641;53.556;9.914;2023-03-03T07:14:41;22.00;;;9.20;;
71606;SDS011;60641;53.556;9.914;2023-03-03T07:17:13;19.60;;;8.60;;
71606;SDS011;60641;53.556;9.914;2023-03-03T07:19:42;22.70;;;9.70;;
71606;SDS011;60641;53.556;9.914;2023-03-03T07:22:12;20.50;;;9.30;;
71606;SDS011;60641;53.556;9.914;2023-03-03T07:24:40;18.90;;;8.50;;
71606;SDS011;60641;53.556;9.914;2023-03-03T07:27:19;18.60;;;8.40;;
71606;SDS011;60641;53.556;9.914;2023-03-03T07:29:50;33.00;;;12.80;;
71606;SDS011;60641;53.556;9.914;2023-03-03T07:32:24;23.00;;;10.80;;
71606;SDS011;60641;53.556;9.914;2023-03-03T07:35:07;22.30;;;9.40;;
71606;SDS011;60641;53.556;9.914;2023-03-03T07:37:49;21.90;;;9.40;;
71606;SDS011;60641;53.556;9.914;2023-03-03T07:40:37;19.50;;;8.80;;
71606;SDS011;60641;53.556;9.914;2023-03-03T07:43:22;17.70;;;8.00;;
71606;SDS011;60641;53.556;9.914;2023-03-03T07:45:50;15.70;;;7.30;;
71606;SDS011;60641;53.556;9.914;2023-03-03T07:48:24;14.80;;;6.60;;
71606;SDS011;60641;53.556;9.914;2023-03-03T07:50:52;15.40;;;7.10;;
71606;SDS011;60641;53.556;9.914;2023-03-03T07:53:26;16.00;;;7.10;;
71606;SDS011;60641;53.556;9.914;2023-03-03T07:55:54;15.40;;;6.60;;
71606;SDS011;60641;53.556;9.914;2023-03-03T07:58:26;17.80;;;7.40;;
71606;SDS011;60641;53.556;9.914;2023-03-03T08:04:21;16.80;;;7.30;;
71606;SDS011;60641;53.556;9.914;2023-03-03T08:06:51;18.00;;;7.40;;
71606;SDS011;60641;53.556;9.914;2023-03-03T08:09:46;16.00;;;7.00;;
71606;SDS011;60641;53.556;9.914;2023-03-03T08:14:44;15.30;;;7.10;;
71606;SDS011;60641;53.556;9.914;2023-03-03T08:17:21;15.00;;;6.50;;
71606;SDS011;60641;53.556;9.914;2023-03-03T08:19:52;15.20;;;7.00;;
71606;SDS011;60641;53.556;9.914;2023-03-03T08:22:34;17.20;;;7.40;;
71606;SDS011;60641;53.556;9.914;2023-03-03T08:25:01;18.70;;;8.20;;
71606;SDS011;60641;53.556;9.914;2023-03-03T08:27:27;16.10;;;7.90;;
71606;SDS011;60641;53.556;9.914;2023-03-03T08:29:54;17.10;;;7.40;;
71606;SDS011;60641;53.556;9.914;2023-03-03T08:32:20;19.40;;;8.70;;
71606;SDS011;60641;53.556;9.914;2023-03-03T08:34:47;17.90;;;8.10;;
71606;SDS011;60641;53.556;9.914;2023-03-03T08:37:14;19.50;;;8.10;;
71606;SDS011;60641;53.556;9.914;2023-03-03T08:39:40;22.30;;;8.70;;
71606;SDS011;60641;53.556;9.914;2023-03-03T08:42:08;16.80;;;7.60;;
71606;SDS011;60641;53.556;9.914;2023-03-03T08:44:34;18.10;;;8.00;;
71606;SDS011;60641;53.556;9.914;2023-03-03T08:47:00;15.60;;;6.70;;
71606;SDS011;60641;53.556;9.914;2023-03-03T08:49:27;16.40;;;6.80;;
71606;SDS011;60641;53.556;9.914;2023-03-03T08:51:54;17.00;;;7.60;;
71606;SDS011;60641;53.556;9.914;2023-03-03T08:54:20;17.50;;;8.30;;
71606;SDS011;60641;53.556;9.914;2023-03-03T08:56:47;18.50;;;7.90;;
71606;SDS011;60641;53.556;9.914;2023-03-03T08:59:13;20.90;;;9.10;;
71606;SDS011;60641;53.556;9.914;2023-03-03T09:01:39;21.90;;;9.00;;
71606;SDS011;60641;53.556;9.914;2023-03-03T09:04:09;24.90;;;9.90;;
71606;SDS011;60641;53.556;9.914;2023-03-03T09:06:35;27.10;;;11.00;;
71606;SDS011;60641;53.556;9.914;2023-03-03T09:09:02;27.70;;;11.30;;
71606;SDS011;60641;53.556;9.914;2023-03-03T09:11:29;30.10;;;11.50;;
71606;SDS011;60641;53.556;9.914;2023-03-03T09:14:11;27.10;;;11.50;;
71606;SDS011;60641;53.556;9.914;2023-03-03T09:16:40;21.60;;;9.60;;
71606;SDS011;60641;53.556;9.914;2023-03-03T09:21:50;21.80;;;9.40;;
71606;SDS011;60641;53.556;9.914;2023-03-03T09:24:29;20.80;;;8.40;;
71606;SDS011;60641;53.556;9.914;2023-03-03T09:26:57;17.70;;;8.00;;
71606;SDS011;60641;53.556;9.914;2023-03-03T09:29:25;19.10;;;7.90;;
71606;SDS011;60641;53.556;9.914;2023-03-03T09:31:54;21.00;;;8.90;;
71606;SDS011;60641;53.556;9.914;2023-03-03T09:34:41;16.70;;;7.30;;
71606;SDS011;60641;53.556;9.914;2023-03-03T09:37:20;19.30;;;7.90;;
71606;SDS011;60641;53.556;9.914;2023-03-03T09:39:49;17.70;;;7.60;;
71606;SDS011;60641;53.556;9.914;2023-03-03T09:45:28;18.90;;;8.10;;
71606;SDS011;60641;53.556;9.914;2023-03-03T09:48:18;19.10;;;8.40;;
71606;SDS011;60641;53.556;9.914;2023-03-03T09:50:58;19.60;;;8.70;;
71606;SDS011;60641;53.556;9.914;2023-03-03T09:53:38;19.90;;;8.40;;
71606;SDS011;60641;53.556;9.914;2023-03-03T09:59:02;19.30;;;8.20;;
71606;SDS011;60641;53.556;9.914;2023-03-03T10:01:32;17.60;;;7.20;;
71606;SDS011;60641;53.556;9.914;2023-03-03T10:18:52;13.00;;;5.80;;
71606;SDS011;60641;53.556;9.914;2023-03-03T10:28:57;16.90;;;6.20;;
71606;SDS011;60641;53.556;9.914;2023-03-03T10:40:07;20.30;;;6.90;;
71606;SDS011;60641;53.556;9.914;2023-03-03T10:48:33;15.10;;;6.30;;
71606;SDS011;60641;53.556;9.914;2023-03-03T10:56:28;16.40;;;6.80;;
71606;SDS011;60641;53.556;9.914;2023-03-03T11:02:20;14.00;;;5.90;;
71606;SDS011;60641;53.556;9.914;2023-03-03T11:07:27;16.40;;;6.80;;
71606;SDS011;60641;53.556;9.914;2023-03-03T11:10:03;15.60;;;6.40;;
71606;SDS011;60641;53.556;9.914;2023-03-03T11:12:40;13.60;;;5.80;;
71606;SDS011;60641;53.556;9.914;2023-03-03T11:15:18;13.90;;;5.60;;
71606;SDS011;60641;53.556;9.914;2023-03-03T11:18:01;14.60;;;5.50;;
71606;SDS011;60641;53.556;9.914;2023-03-03T11:20:41;14.10;;;4.80;;
71606;SDS011;60641;53.556;9.914;2023-03-03T11:26:49;12.40;;;5.00;;
71606;SDS011;60641;53.556;9.914;2023-03-03T11:37:11;17.40;;;5.50;;
71606;SDS011;60641;53.556;9.914;2023-03-03T11:39:38;13.10;;;4.60;;
71606;SDS011;60641;53.556;9.914;2023-03-03T11:47:49;13.50;;;4.80;;
71606;SDS011;60641;53.556;9.914;2023-03-03T11:52:58;14.20;;;5.10;;
71606;SDS011;60641;53.556;9.914;2023-03-03T11:55:42;14.50;;;5.50;;
71606;SDS011;60641;53.556;9.914;2023-03-03T11:58:19;13.00;;;5.10;;
71606;SDS011;60641;53.556;9.914;2023-03-03T12:01:00;15.80;;;5.60;;
71606;SDS011;60641;53.556;9.914;2023-03-03T12:03:29;15.00;;;5.70;;
71606;SDS011;60641;53.556;9.914;2023-03-03T12:14:07;16.40;;;5.20;;
71606;SDS011;60641;53.556;9.914;2023-03-03T12:25:22;15.20;;;4.30;;
71606;SDS011;60641;53.556;9.914;2023-03-03T12:27:51;17.00;;;4.00;;
71606;SDS011;60641;53.556;9.914;2023-03-03T12:44:23;11.80;;;3.00;;
71606;SDS011;60641;53.556;9.914;2023-03-03T12:47:08;10.70;;;2.80;;
71606;SDS011;60641;53.556;9.914;2023-03-03T12:50:02;11.40;;;2.70;;
71606;SDS011;60641;53.556;9.914;2023-03-03T13:01:29;8.10;;;2.20;;
71606;SDS011;60641;53.556;9.914;2023-03-03T13:13:00;5.90;;;1.70;;
71606;SDS011;60641;53.556;9.914;2023-03-03T13:15:38;5.90;;;1.40;;
71606;SDS011;60641;53.556;9.914;2023-03-03T13:20:48;8.70;;;1.50;;
71606;SDS011;60641;53.556;9.914;2023-03-03T13:26:14;5.30;;;1.30;;
71606;SDS011;60641;53.556;9.914;2023-03-03T13:31:36;4.20;;;1.20;;
71606;SDS011;60641;53.556;9.914;2023-03-03T13:34:12;5.70;;;1.00;;
71606;SDS011;60641;53.556;9.914;2023-03-03T13:36:50;4.10;;;1.20;;
71606;SDS011;60641;53.556;9.914;2023-03-03T13:39:32;5.10;;;0.80;;
71606;SDS011;60641;53.556;9.914;2023-03-03T13:44:48;6.20;;;1.00;;
71606;SDS011;60641;53.556;9.914;2023-03-03T13:47:30;5.10;;;0.80;;
71606;SDS011;60641;53.556;9.914;2023-03-03T13:53:16;5.00;;;1.00;;
71606;SDS011;60641;53.556;9.914;2023-03-03T14:01:44;4.10;;;1.00;;
71606;SDS011;60641;53.556;9.914;2023-03-03T14:04:14;7.50;;;1.20;;
71606;SDS011;60641;53.556;9.914;2023-03-03T14:06:48;6.20;;;1.00;;
71606;SDS011;60641;53.556;9.914;2023-03-03T14:09:29;7.60;;;0.80;;
71606;SDS011;60641;53.556;9.914;2023-03-03T14:20:17;4.30;;;0.80;;
71606;SDS011;60641;53.556;9.914;2023-03-03T14:25:21;6.40;;;0.80;;
71606;SDS011;60641;53.556;9.914;2023-03-03T14:28:08;3.70;;;0.70;;
71606;SDS011;60641;53.556;9.914;2023-03-03T14:30:37;5.20;;;0.80;;
71606;SDS011;60641;53.556;9.914;2023-03-03T14:35:41;2.70;;;0.60;;
71606;SDS011;60641;53.556;9.914;2023-03-03T14:40:39;6.40;;;0.90;;
71606;SDS011;60641;53.556;9.914;2023-03-03T14:43:24;5.70;;;1.00;;
71606;SDS011;60641;53.556;9.914;2023-03-03T14:45:55;5.40;;;0.70;;
71606;SDS011;60641;53.556;9.914;2023-03-03T14:48:22;5.10;;;0.60;;
71606;SDS011;60641;53.556;9.914;2023-03-03T14:53:32;6.00;;;1.00;;
71606;SDS011;60641;53.556;9.914;2023-03-03T14:58:53;7.70;;;0.80;;
71606;SDS011;60641;53.556;9.914;2023-03-03T15:01:46;6.50;;;0.80;;
71606;SDS011;60641;53.556;9.914;2023-03-03T15:06:40;5.60;;;0.70;;
71606;SDS011;60641;53.556;9.914;2023-03-03T15:09:23;5.30;;;0.70;;
71606;SDS011;60641;53.556;9.914;2023-03-03T15:11:53;3.70;;;0.50;;
71606;SDS011;60641;53.556;9.914;2023-03-03T15:19:54;5.30;;;0.70;;
71606;SDS011;60641;53.556;9.914;2023-03-03T15:25:03;5.70;;;0.70;;
71606;SDS011;60641;53.556;9.914;2023-03-03T15:27:48;6.20;;;0.70;;
71606;SDS011;60641;53.556;9.914;2023-03-03T15:30:21;6.30;;;0.70;;
71606;SDS011;60641;53.556;9.914;2023-03-03T15:33:04;5.50;;;0.90;;
71606;SDS011;60641;53.556;9.914;2023-03-03T15:35:47;4.40;;;0.80;;
71606;SDS011;60641;53.556;9.914;2023-03-03T15:40:48;8.10;;;1.00;;
71606;SDS011;60641;53.556;9.914;2023-03-03T15:51:19;5.90;;;0.90;;
71606;SDS011;60641;53.556;9.914;2023-03-03T15:53:54;6.20;;;1.00;;
71606;SDS011;60641;53.556;9.914;2023-03-03T15:56:43;7.70;;;1.00;;
71606;SDS011;60641;53.556;9.914;2023-03-03T15:59:51;6.60;;;0.90;;
71606;SDS011;60641;53.556;9.914;2023-03-03T16:02:19;10.20;;;1.30;;
71606;SDS011;60641;53.556;9.914;2023-03-03T16:07:42;11.60;;;1.10;;
71606;SDS011;60641;53.556;9.914;2023-03-03T16:10:14;7.90;;;1.10;;
71606;SDS011;60641;53.556;9.914;2023-03-03T16:15:41;6.80;;;1.00;;
71606;SDS011;60641;53.556;9.914;2023-03-03T16:18:22;11.60;;;1.10;;
71606;SDS011;60641;53.556;9.914;2023-03-03T16:26:57;7.30;;;0.90;;
71606;SDS011;60641;53.556;9.914;2023-03-03T16:32:31;8.20;;;1.10;;
71606;SDS011;60641;53.556;9.914;2023-03-03T16:37:58;8.80;;;1.00;;
71606;SDS011;60641;53.556;9.914;2023-03-03T16:40:37;10.10;;;1.00;;
71606;SDS011;60641;53.556;9.914;2023-03-03T16:45:57;12.60;;;1.30;;
71606;SDS011;60641;53.556;9.914;2023-03-03T16:48:44;7.00;;;1.00;;
71606;SDS011;60641;53.556;9.914;2023-03-03T16:51:22;10.90;;;1.10;;
71606;SDS011;60641;53.556;9.914;2023-03-03T16:59:31;13.90;;;1.40;;
71606;SDS011;60641;53.556;9.914;2023-03-03T17:05:01;9.20;;;1.20;;
71606;SDS011;60641;53.556;9.914;2023-03-03T17:07:47;11.80;;;1.30;;
71606;SDS011;60641;53.556;9.914;2023-03-03T17:10:20;10.20;;;1.20;;
71606;SDS011;60641;53.556;9.914;2023-03-03T17:13:02;12.70;;;1.50;;
71606;SDS011;60641;53.556;9.914;2023-03-03T17:20:57;12.40;;;1.50;;
71606;SDS011;60641;53.556;9.914;2023-03-03T17:45:00;17.50;;;1.60;;
71606;SDS011;60641;53.556;9.914;2023-03-03T17:50:30;11.30;;;1.40;;
71606;SDS011;60641;53.556;9.914;2023-03-03T18:01:43;14.80;;;1.50;;
71606;SDS011;60641;53.556;9.914;2023-03-03T18:18:55;11.50;;;1.60;;
71606;SDS011;60641;53.556;9.914;2023-03-03T18:24:35;15.10;;;1.50;;
71606;SDS011;60641;53.556;9.914;2023-03-03T18:32:39;15.40;;;1.50;;
71606;SDS011;60641;53.556;9.914;2023-03-03T18:35:41;10.80;;;1.60;;
71606;SDS011;60641;53.556;9.914;2023-03-03T18:41:00;14.20;;;1.60;;
71606;SDS011;60641;53.556;9.914;2023-03-03T19:00:14;10.30;;;1.50;;
71606;SDS011;60641;53.556;9.914;2023-03-03T19:04:50;15.70;;;2.00;;
71606;SDS011;60641;53.556;9.914;2023-03-03T19:17:59;13.30;;;1.80;;
71606;SDS011;60641;53.556;9.914;2023-03-03T19:20:40;15.40;;;2.10;;
71606;SDS011;60641;53.556;9.914;2023-03-03T19:23:13;18.30;;;2.00;;
71606;SDS011;60641;53.556;9.914;2023-03-03T19:25:40;16.90;;;1.80;;
71606;SDS011;60641;53.556;9.914;2023-03-03T19:39:03;14.90;;;1.70;;
71606;SDS011;60641;53.556;9.914;2023-03-03T19:44:25;16.20;;;2.30;;
71606;SDS011;60641;53.556;9.914;2023-03-03T19:47:02;16.10;;;2.30;;
71606;SDS011;60641;53.556;9.914;2023-03-03T19:49:41;16.60;;;2.00;;
71606;SDS011;60641;53.556;9.914;2023-03-03T19:55:16;17.60;;;2.00;;
71606;SDS011;60641;53.556;9.914;2023-03-03T19:57:54;19.00;;;2.50;;
71606;SDS011;60641;53.556;9.914;2023-03-03T20:00:47;14.90;;;1.60;;
71606;SDS011;60641;53.556;9.914;2023-03-03T20:03:53;15.30;;;2.50;;
71606;SDS011;60641;53.556;9.914;2023-03-03T20:06:33;16.80;;;2.10;;
71606;SDS011;60641;53.556;9.914;2023-03-03T20:12:02;16.40;;;2.30;;
71606;SDS011;60641;53.556;9.914;2023-03-03T20:17:10;14.90;;;1.90;;
71606;SDS011;60641;53.556;9.914;2023-03-03T20:19:55;15.70;;;1.80;;
71606;SDS011;60641;53.556;9.914;2023-03-03T20:25:35;16.70;;;2.20;;
71606;SDS011;60641;53.556;9.914;2023-03-03T20:33:36;19.20;;;2.00;;
71606;SDS011;60641;53.556;9.914;2023-03-03T20:36:31;17.60;;;2.30;;
71606;SDS011;60641;53.556;9.914;2023-03-03T20:39:18;20.40;;;2.20;;
71606;SDS011;60641;53.556;9.914;2023-03-03T20:44:46;15.50;;;1.90;;
71606;SDS011;60641;53.556;9.914;2023-03-03T20:47:38;14.20;;;1.90;;
71606;SDS011;60641;53.556;9.914;2023-03-03T20:50:33;15.90;;;1.90;;
71606;SDS011;60641;53.556;9.914;2023-03-03T20:53:12;16.80;;;2.20;;
71606;SDS011;60641;53.556;9.914;2023-03-03T21:01:15;12.50;;;1.40;;
71606;SDS011;60641;53.556;9.914;2023-03-03T21:03:46;15.40;;;2.60;;
71606;SDS011;60641;53.556;9.914;2023-03-03T21:06:16;15.50;;;1.90;;
71606;SDS011;60641;53.556;9.914;2023-03-03T21:11:14;12.10;;;1.80;;
71606;SDS011;60641;53.556;9.914;2023-03-03T21:13:51;16.60;;;1.80;;
71606;SDS011;60641;53.556;9.914;2023-03-03T21:21:33;16.50;;;1.70;;
71606;SDS011;60641;53.556;9.914;2023-03-03T21:24:02;17.00;;;1.80;;
71606;SDS011;60641;53.556;9.914;2023-03-03T21:29:15;18.50;;;1.20;;